createdAt,value
2023-02-12T00:01:26.351Z,54.27
2023-02-12T00:03:53.557Z,51.40
2023-02-12T00:06:20.900Z,53.03
2023-02-12T00:08:51.368Z,50.73
2023-02-12T00:11:22.739Z,51.53
2023-02-12T00:13:50.634Z,50.00
2023-02-12T00:16:22.360Z,48.63
2023-02-12T00:18:53.175Z,50.47
2023-02-12T00:21:20.836Z,54.53
2023-02-12T00:23:47.806Z,49.53
2023-02-12T00:26:18.968Z,48.23
2023-02-12T00:28:46.076Z,50.57
2023-02-12T00:31:21.358Z,49.80
2023-02-12T00:33:48.586Z,52.07
2023-02-12T00:36:20.615Z,48.27
2023-02-12T00:38:49.503Z,49.67
2023-02-12T00:41:16.481Z,51.57
2023-02-12T00:43:43.561Z,46.83
2023-02-12T00:46:11.024Z,49.60
2023-02-12T00:48:38.225Z,51.93
2023-02-12T00:51:06.287Z,52.17
2023-02-12T00:53:34.295Z,49.37
2023-02-12T00:56:02.921Z,50.77
2023-02-12T00:58:32.060Z,49.20
2023-02-12T01:00:59.132Z,45.00
2023-02-12T01:03:26.245Z,48.23
2023-02-12T01:05:54.189Z,43.77
2023-02-12T01:08:21.888Z,44.23
2023-02-12T01:11:00.654Z,38.17
2023-02-12T01:13:28.940Z,41.17
2023-02-12T01:16:20.484Z,48.90
2023-02-12T01:18:48.264Z,46.17
2023-02-12T01:21:19.930Z,43.20
2023-02-12T01:23:48.271Z,42.90
2023-02-12T01:26:17.053Z,49.97
2023-02-12T01:28:50.116Z,48.33
2023-02-12T01:31:21.539Z,44.63
2023-02-12T01:33:55.140Z,44.83
2023-02-12T01:36:23.314Z,41.47
2023-02-12T01:38:51.364Z,45.93
2023-02-12T01:41:25.142Z,45.40
2023-02-12T01:44:17.026Z,42.60
2023-02-12T01:46:46.084Z,44.30
2023-02-12T01:49:45.120Z,45.23
2023-02-12T01:52:25.338Z,43.93
2023-02-12T01:54:57.189Z,44.63
2023-02-12T01:57:27.362Z,44.17
2023-02-12T01:59:57.882Z,38.67
2023-02-12T02:02:25.293Z,42.10
2023-02-12T02:05:01.528Z,41.10
2023-02-12T02:07:29.464Z,38.03
2023-02-12T02:09:58.373Z,36.83
2023-02-12T02:12:45.481Z,41.43
2023-02-12T02:15:12.662Z,37.63
2023-02-12T02:18:02.788Z,37.83
2023-02-12T02:21:11.326Z,32.60
2023-02-12T02:24:05.196Z,34.00
2023-02-12T02:27:09.189Z,36.13
2023-02-12T02:30:08.642Z,34.63
2023-02-12T02:33:14.494Z,32.17
2023-02-12T02:36:08.072Z,30.47
2023-02-12T02:38:42.694Z,33.73
2023-02-12T02:41:25.826Z,35.73
2023-02-12T02:43:53.491Z,33.17
2023-02-12T02:46:30.892Z,34.60
2023-02-12T02:49:04.280Z,31.87
2023-02-12T02:51:41.089Z,31.33
2023-02-12T02:54:23.340Z,32.50
2023-02-12T02:56:55.297Z,29.30
2023-02-12T02:59:34.599Z,39.17
2023-02-12T03:02:25.524Z,33.23
2023-02-12T03:05:00.148Z,32.67
2023-02-12T03:07:52.453Z,30.90
2023-02-12T03:10:27.566Z,26.70
2023-02-12T03:13:08.037Z,27.07
2023-02-12T03:15:54.602Z,28.30
2023-02-12T03:18:41.985Z,27.40
2023-02-12T03:21:16.489Z,25.93
2023-02-12T03:23:48.298Z,26.50
2023-02-12T03:26:27.686Z,28.67
2023-02-12T03:28:54.726Z,28.93
2023-02-12T03:31:46.887Z,30.03
2023-02-12T03:34:46.042Z,30.73
2023-02-12T03:37:35.588Z,27.30
2023-02-12T03:40:27.904Z,28.40
2023-02-12T03:43:13.411Z,30.43
2023-02-12T03:45:52.484Z,31.87
2023-02-12T03:48:33.950Z,30.50
2023-02-12T03:51:23.722Z,29.63
2023-02-12T03:53:50.970Z,31.93
2023-02-12T03:56:33.403Z,32.27
2023-02-12T03:59:00.433Z,30.73
2023-02-12T04:01:28.863Z,31.23
2023-02-12T04:03:56.559Z,30.70
2023-02-12T04:06:27.784Z,32.43
2023-02-12T04:08:59.205Z,31.73
2023-02-12T04:11:42.025Z,31.67
2023-02-12T04:14:18.403Z,32.13
2023-02-12T04:16:58.646Z,29.93
2023-02-12T04:20:02.589Z,29.83
2023-02-12T04:22:45.448Z,35.03
2023-02-12T04:25:37.442Z,34.77
2023-02-12T04:28:16.240Z,36.67
2023-02-12T04:30:57.024Z,33.63
2023-02-12T04:33:29.120Z,37.07
2023-02-12T04:36:07.115Z,34.03
2023-02-12T04:38:46.691Z,36.60
2023-02-12T04:41:14.039Z,35.30
2023-02-12T04:43:41.015Z,37.60
2023-02-12T04:46:09.113Z,37.47
2023-02-12T04:48:52.699Z,37.87
2023-02-12T04:51:20.341Z,41.03
2023-02-12T04:53:47.885Z,38.50
2023-02-12T04:56:15.183Z,40.60
2023-02-12T04:58:43.341Z,40.50
2023-02-12T05:01:10.741Z,40.40
2023-02-12T05:03:38.224Z,41.93
2023-02-12T05:06:08.372Z,39.60
2023-02-12T05:08:35.536Z,39.37
2023-02-12T05:11:11.094Z,42.93
2023-02-12T05:13:38.619Z,44.20
2023-02-12T05:16:08.338Z,41.83
2023-02-12T05:18:36.056Z,47.33
2023-02-12T05:21:05.733Z,41.57
2023-02-12T05:23:35.719Z,40.03
2023-02-12T05:26:06.234Z,44.80
2023-02-12T05:28:33.467Z,44.27
2023-02-12T05:31:07.635Z,42.17
2023-02-12T05:33:35.460Z,45.10
2023-02-12T05:36:20.922Z,44.90
2023-02-12T05:38:48.784Z,44.13
2023-02-12T05:41:22.509Z,42.17
2023-02-12T05:43:50.207Z,46.30
2023-02-12T05:46:19.872Z,43.87
2023-02-12T05:48:47.743Z,45.27
2023-02-12T05:51:21.724Z,44.90
2023-02-12T05:53:50.973Z,49.97
2023-02-12T05:56:21.877Z,44.73
2023-02-12T05:58:57.631Z,45.33
2023-02-12T06:01:30.638Z,46.07
2023-02-12T06:04:01.018Z,50.43
2023-02-12T06:06:29.706Z,47.70
2023-02-12T06:08:57.476Z,46.23
2023-02-12T06:11:24.655Z,48.50
2023-02-12T06:13:51.947Z,52.83
2023-02-12T06:16:27.788Z,46.17
2023-02-12T06:18:56.924Z,51.70
2023-02-12T06:21:26.083Z,46.80
2023-02-12T06:23:53.477Z,49.40
2023-02-12T06:26:24.334Z,50.47
2023-02-12T06:28:52.061Z,50.27
2023-02-12T06:31:32.709Z,46.37
2023-02-12T06:34:06.518Z,48.43
2023-02-12T06:36:34.046Z,52.57
2023-02-12T06:39:05.542Z,51.77
2023-02-12T06:41:32.635Z,47.70
2023-02-12T06:44:00.194Z,51.17
2023-02-12T06:46:27.493Z,45.27
2023-02-12T06:48:57.174Z,47.43
2023-02-12T06:51:25.469Z,52.90
2023-02-12T06:53:54.766Z,52.83
2023-02-12T06:56:24.417Z,51.80
2023-02-12T06:59:02.102Z,51.47
2023-02-12T07:01:30.750Z,52.50
2023-02-12T07:04:03.631Z,52.80
2023-02-12T07:06:34.558Z,51.63
2023-02-12T07:09:03.716Z,51.40
2023-02-12T07:11:36.200Z,48.27
2023-02-12T07:14:05.198Z,48.60
2023-02-12T07:16:32.307Z,50.63
2023-02-12T07:18:59.406Z,47.53
2023-02-12T07:21:26.375Z,49.40
2023-02-12T07:23:54.568Z,48.07
2023-02-12T07:26:22.361Z,48.83
2023-02-12T07:28:51.058Z,47.57
2023-02-12T07:31:34.159Z,50.07
2023-02-12T07:34:01.442Z,44.53
2023-02-12T07:36:31.454Z,44.63
2023-02-12T07:38:59.516Z,43.53
2023-02-12T07:41:30.683Z,47.60
2023-02-12T07:44:06.823Z,45.30
2023-02-12T07:46:48.599Z,48.87
2023-02-12T07:49:20.075Z,46.27
2023-02-12T07:51:48.200Z,46.23
2023-02-12T07:54:15.649Z,47.50
2023-02-12T07:56:46.997Z,43.63
2023-02-12T07:59:17.520Z,44.93
2023-02-12T08:01:49.397Z,41.30
2023-02-12T08:04:21.065Z,45.70
2023-02-12T08:06:51.990Z,46.00
2023-02-12T08:09:23.222Z,44.93
2023-02-12T08:11:50.540Z,45.37
2023-02-12T08:14:20.555Z,40.40
2023-02-12T08:16:49.368Z,39.87
2023-02-12T08:19:21.145Z,42.57
2023-02-12T08:21:54.530Z,37.97
2023-02-12T08:24:22.469Z,44.93
2023-02-12T08:26:50.310Z,37.67
2023-02-12T08:29:21.486Z,38.40
2023-02-12T08:31:50.433Z,35.93
2023-02-12T08:34:25.501Z,38.20
2023-02-12T08:36:54.654Z,40.10
2023-02-12T08:39:23.907Z,39.50
2023-02-12T08:41:52.067Z,37.93
2023-02-12T08:44:19.138Z,42.20
2023-02-12T08:46:53.012Z,38.73
2023-02-12T08:49:26.900Z,34.17
2023-02-12T08:51:57.129Z,39.43
2023-02-12T08:54:27.143Z,33.37
2023-02-12T08:57:00.818Z,33.87
2023-02-12T08:59:28.689Z,33.73
2023-02-12T09:01:55.706Z,32.03
2023-02-12T09:04:28.357Z,37.23
2023-02-12T09:06:56.227Z,39.27
2023-02-12T09:09:23.425Z,34.50
2023-02-12T09:11:50.721Z,30.67
2023-02-12T09:14:23.870Z,29.50
2023-02-12T09:16:53.284Z,30.67
2023-02-12T09:19:20.543Z,26.23
2023-02-12T09:21:55.540Z,27.20
2023-02-12T09:24:24.217Z,25.97
2023-02-12T09:26:51.303Z,27.37
2023-02-12T09:29:18.281Z,25.20
2023-02-12T09:31:45.325Z,26.47
2023-02-12T09:34:12.508Z,25.43
2023-02-12T09:36:39.480Z,24.83
2023-02-12T09:39:06.404Z,28.17
2023-02-12T09:42:52.083Z,29.83
2023-02-12T09:45:26.655Z,25.90
2023-02-12T09:48:46.276Z,27.77
2023-02-12T09:51:13.636Z,23.43
2023-02-12T09:53:45.949Z,23.57
2023-02-12T09:56:23.119Z,26.10
2023-02-12T09:58:59.600Z,29.87
2023-02-12T10:01:29.832Z,30.07
2023-02-12T10:03:57.248Z,26.87
2023-02-12T10:06:27.071Z,28.43
2023-02-12T10:09:19.322Z,28.10
2023-02-12T10:12:04.171Z,28.00
2023-02-12T10:15:05.951Z,32.83
2023-02-12T10:18:00.342Z,29.00
2023-02-12T10:20:57.565Z,26.87
2023-02-12T10:23:50.075Z,27.50
2023-02-12T10:26:42.764Z,25.53
2023-02-12T10:29:25.154Z,28.43
2023-02-12T10:32:03.278Z,25.73
2023-02-12T10:34:36.977Z,27.77
2023-02-12T10:37:14.824Z,27.13
2023-02-12T10:39:49.051Z,27.13
2023-02-12T10:42:25.308Z,25.57
2023-02-12T10:44:52.272Z,28.50
2023-02-12T10:47:23.139Z,27.27
2023-02-12T10:50:01.846Z,27.67
2023-02-12T10:52:48.729Z,28.23
2023-02-12T10:55:30.477Z,27.87
2023-02-12T10:57:59.035Z,33.57
2023-02-12T11:00:35.172Z,32.27
2023-02-12T11:03:14.068Z,29.70
2023-02-12T11:05:44.237Z,31.87
2023-02-12T11:08:35.866Z,31.50
2023-02-12T11:11:12.651Z,32.50
2023-02-12T11:13:45.864Z,32.23
2023-02-12T11:16:13.423Z,34.93
2023-02-12T11:18:41.922Z,32.00
2023-02-12T11:21:12.010Z,37.43
2023-02-12T11:23:42.669Z,34.90
2023-02-12T11:26:18.357Z,34.53
2023-02-12T11:28:57.501Z,37.30
2023-02-12T11:31:41.696Z,35.83
2023-02-12T11:34:15.822Z,39.70
2023-02-12T11:36:47.603Z,38.27
2023-02-12T11:39:29.003Z,37.50
2023-02-12T11:42:05.651Z,30.73
2023-02-12T11:44:37.394Z,28.00
2023-02-12T11:47:17.726Z,34.07
2023-02-12T11:49:53.912Z,26.43
2023-02-12T11:52:24.675Z,25.43
2023-02-12T11:54:58.458Z,25.47
2023-02-12T11:57:43.574Z,25.93
2023-02-12T12:00:45.352Z,26.23
2023-02-12T12:03:23.347Z,26.40
2023-02-12T12:05:59.850Z,29.87
2023-02-12T12:08:36.490Z,25.80
2023-02-12T12:11:25.456Z,27.67
2023-02-12T12:14:26.693Z,26.10
2023-02-12T12:17:33.171Z,26.23
2023-02-12T12:20:16.249Z,26.60
2023-02-12T12:23:10.118Z,29.20
2023-02-12T12:26:04.081Z,25.70
2023-02-12T12:29:19.055Z,24.50
2023-02-12T12:32:02.227Z,29.63
2023-02-12T12:34:29.631Z,30.53
2023-02-12T12:37:30.307Z,28.53
2023-02-12T12:40:16.009Z,29.17
2023-02-12T12:43:23.251Z,26.87
2023-02-12T12:46:11.879Z,29.20
2023-02-12T12:49:03.653Z,31.50
2023-02-12T12:51:51.985Z,29.20
2023-02-12T12:54:51.089Z,28.37
2023-02-12T12:57:44.280Z,35.13
2023-02-12T13:00:43.267Z,37.93
2023-02-12T13:03:28.735Z,34.73
2023-02-12T13:06:30.678Z,36.60
2023-02-12T13:09:01.042Z,36.20
2023-02-12T13:11:57.066Z,36.50
2023-02-12T13:15:07.758Z,39.00
2023-02-12T13:18:14.712Z,37.63
2023-02-12T13:20:55.729Z,39.93
2023-02-12T13:23:46.756Z,36.93
2023-02-12T13:26:44.793Z,39.03
2023-02-12T13:29:28.261Z,39.30
2023-02-12T13:32:07.082Z,37.83
2023-02-12T13:34:36.711Z,42.50
2023-02-12T13:37:05.862Z,36.50
2023-02-12T13:39:39.350Z,40.87
2023-02-12T13:42:21.115Z,40.00
2023-02-12T13:45:14.890Z,36.97
2023-02-12T13:48:16.517Z,37.90
2023-02-12T13:51:44.250Z,33.43
2023-02-12T13:54:44.380Z,33.67
2023-02-12T13:57:20.018Z,33.27
2023-02-12T13:59:53.712Z,33.47
2023-02-12T14:02:34.384Z,33.40
2023-02-12T14:05:03.606Z,32.97
2023-02-12T14:07:52.880Z,30.33
2023-02-12T14:10:41.808Z,32.67
2023-02-12T14:13:28.156Z,30.80
2023-02-12T14:15:58.791Z,28.50
2023-02-12T14:18:29.777Z,29.03
2023-02-12T14:21:12.003Z,31.07
2023-02-12T14:23:44.094Z,28.27
2023-02-12T14:26:23.424Z,26.17
2023-02-12T14:28:57.579Z,29.13
2023-02-12T14:31:27.682Z,28.40
2023-02-12T14:34:06.825Z,27.17
2023-02-12T14:36:33.792Z,29.73
2023-02-12T14:39:25.337Z,28.90
2023-02-12T14:42:15.543Z,28.57
2023-02-12T14:44:51.946Z,27.43
2023-02-12T14:47:31.219Z,31.13
2023-02-12T14:50:10.935Z,29.47
2023-02-12T14:52:51.803Z,29.80
2023-02-12T14:55:27.490Z,35.87
2023-02-12T14:58:02.997Z,31.30
2023-02-12T15:00:41.540Z,30.03
2023-02-12T15:03:15.196Z,29.73
2023-02-12T15:06:06.893Z,34.37
2023-02-12T15:08:49.348Z,32.17
2023-02-12T15:11:43.522Z,29.37
2023-02-12T15:14:42.191Z,29.07
2023-02-12T15:17:16.465Z,30.67
2023-02-12T15:20:10.453Z,30.40
2023-02-12T15:22:41.053Z,28.87
2023-02-12T15:25:32.739Z,29.57
2023-02-12T15:28:19.777Z,33.70
2023-02-12T15:30:46.899Z,30.70
2023-02-12T15:33:28.172Z,32.53
2023-02-12T15:35:56.331Z,32.40
2023-02-12T15:39:00.171Z,34.53
2023-02-12T15:41:39.767Z,31.67
2023-02-12T15:44:30.881Z,33.93
2023-02-12T15:46:59.284Z,35.40
2023-02-12T15:49:37.772Z,35.33
2023-02-12T15:52:16.205Z,40.37
2023-02-12T15:54:46.367Z,36.80
2023-02-12T15:57:21.944Z,36.70
2023-02-12T15:59:54.505Z,33.77
2023-02-12T16:02:28.378Z,33.67
2023-02-12T16:04:57.218Z,33.63
2023-02-12T16:07:26.535Z,38.23
2023-02-12T16:09:54.291Z,39.77
2023-02-12T16:12:25.479Z,41.77
2023-02-12T16:14:55.754Z,37.87
2023-02-12T16:17:25.669Z,36.73
2023-02-12T16:19:55.681Z,37.47
2023-02-12T16:22:39.448Z,37.47
2023-02-12T16:25:27.836Z,36.63
2023-02-12T16:28:04.345Z,36.73
2023-02-12T16:30:42.916Z,34.17
2023-02-12T16:33:45.552Z,35.13
2023-02-12T16:36:31.472Z,36.97
2023-02-12T16:39:05.821Z,31.47
2023-02-12T16:41:52.388Z,36.50
2023-02-12T16:44:27.569Z,32.80
2023-02-12T16:46:59.227Z,31.17
2023-02-12T16:49:27.696Z,36.13
2023-02-12T16:52:19.265Z,32.10
2023-02-12T16:54:46.238Z,33.13
2023-02-12T16:57:13.230Z,32.43
2023-02-12T16:59:43.478Z,33.87
2023-02-12T17:02:15.782Z,31.83
2023-02-12T17:04:43.128Z,35.43
2023-02-12T17:07:28.464Z,38.17
2023-02-12T17:09:55.459Z,33.67
2023-02-12T17:12:22.754Z,33.60
2023-02-12T17:14:50.293Z,34.33
2023-02-12T17:17:17.599Z,33.77
2023-02-12T17:19:44.860Z,32.23
2023-02-12T17:22:24.885Z,36.03
2023-02-12T17:24:53.289Z,34.13
2023-02-12T17:27:20.721Z,44.43
2023-02-12T17:29:47.703Z,40.03
2023-02-12T17:32:16.263Z,41.83
2023-02-12T17:34:48.678Z,36.47
2023-02-12T17:37:16.449Z,33.60
2023-02-12T17:39:43.578Z,50.90
2023-02-12T17:42:11.611Z,38.47
2023-02-12T17:44:40.030Z,34.37
2023-02-12T17:47:07.544Z,37.50
2023-02-12T17:49:35.568Z,37.47
2023-02-12T17:52:07.035Z,38.83
2023-02-12T17:54:34.396Z,40.53
2023-02-12T17:57:01.375Z,39.33
2023-02-12T17:59:29.269Z,52.63
2023-02-12T18:01:56.349Z,49.27
2023-02-12T18:04:23.462Z,38.13
2023-02-12T18:06:50.450Z,37.40
2023-02-12T18:09:17.442Z,40.63
2023-02-12T18:11:44.379Z,39.03
2023-02-12T18:14:12.268Z,40.83
2023-02-12T18:16:39.407Z,40.80
2023-02-12T18:19:06.874Z,40.67
2023-02-12T18:21:35.009Z,43.53
2023-02-12T18:24:02.746Z,39.53
2023-02-12T18:26:29.682Z,44.70
2023-02-12T18:29:01.091Z,42.97
2023-02-12T18:31:28.766Z,44.03
2023-02-12T18:33:55.884Z,63.07
2023-02-12T18:36:23.165Z,43.17
2023-02-12T18:38:51.946Z,48.53
2023-02-12T18:41:23.381Z,85.17
2023-02-12T18:43:50.610Z,53.97
2023-02-12T18:46:21.979Z,52.93
2023-02-12T18:48:49.764Z,45.13
2023-02-12T18:51:22.299Z,45.93
2023-02-12T18:54:04.325Z,48.17
2023-02-12T18:56:35.549Z,45.30
2023-02-12T18:59:06.106Z,48.33
2023-02-12T19:01:35.071Z,54.43
2023-02-12T19:04:06.467Z,53.03
2023-02-12T19:06:38.891Z,46.80
2023-02-12T19:09:05.917Z,50.37
2023-02-12T19:11:33.506Z,50.97
2023-02-12T19:14:00.538Z,49.47
2023-02-12T19:16:27.975Z,47.40
2023-02-12T19:18:58.440Z,42.63
2023-02-12T19:21:28.494Z,45.43
2023-02-12T19:23:58.842Z,50.23
2023-02-12T19:26:28.006Z,48.70
2023-02-12T19:28:56.496Z,47.97
2023-02-12T19:31:32.771Z,55.00
2023-02-12T19:34:04.439Z,46.47
2023-02-12T19:36:35.252Z,50.73
2023-02-12T19:39:05.844Z,52.17
2023-02-12T19:41:41.305Z,45.40
2023-02-12T19:44:17.975Z,49.60
2023-02-12T19:46:46.961Z,49.37
2023-02-12T19:49:23.203Z,47.07
2023-02-12T19:51:50.716Z,50.50
2023-02-12T19:54:19.691Z,46.83
2023-02-12T19:56:47.244Z,49.13
2023-02-12T19:59:18.010Z,51.80
2023-02-12T20:01:46.517Z,47.93
2023-02-12T20:04:16.598Z,51.07
2023-02-12T20:06:45.929Z,53.07
2023-02-12T20:09:14.069Z,47.23
2023-02-12T20:11:41.724Z,50.10
2023-02-12T20:14:12.565Z,47.20
2023-02-12T20:16:43.710Z,48.63
2023-02-12T20:19:32.020Z,49.60
2023-02-12T20:22:01.896Z,55.83
2023-02-12T20:24:31.947Z,51.53
2023-02-12T20:27:01.637Z,55.73
2023-02-12T20:29:28.954Z,46.90
2023-02-12T20:31:56.327Z,50.90
2023-02-12T20:34:23.467Z,51.17
2023-02-12T20:36:50.648Z,48.03
2023-02-12T20:39:20.519Z,51.53
2023-02-12T20:41:48.442Z,48.00
2023-02-12T20:44:20.190Z,53.40
2023-02-12T20:46:55.909Z,51.47
2023-02-12T20:49:25.445Z,55.33
2023-02-12T20:51:52.754Z,55.13
2023-02-12T20:54:19.882Z,51.53
2023-02-12T20:56:50.189Z,50.53
2023-02-12T20:59:18.427Z,53.53
2023-02-12T21:01:45.809Z,52.63
2023-02-12T21:04:16.867Z,53.03
2023-02-12T21:06:44.848Z,58.93
2023-02-12T21:09:14.088Z,54.13
2023-02-12T21:11:45.210Z,56.60
2023-02-12T21:14:23.589Z,55.93
2023-02-12T21:16:54.257Z,52.97
2023-02-12T21:19:22.101Z,57.80
2023-02-12T21:21:49.335Z,56.73
2023-02-12T21:24:21.771Z,55.00
2023-02-12T21:26:49.836Z,54.70
2023-02-12T21:29:17.610Z,53.70
2023-02-12T21:31:47.915Z,58.77
2023-02-12T21:34:19.460Z,57.67
2023-02-12T21:36:47.918Z,61.70
2023-02-12T21:39:24.497Z,58.33
2023-02-12T21:41:58.442Z,58.00
2023-02-12T21:44:26.436Z,59.00
2023-02-12T21:46:53.855Z,55.43
2023-02-12T21:49:28.443Z,61.13
2023-02-12T21:52:05.938Z,58.07
2023-02-12T21:54:33.797Z,56.70
2023-02-12T21:57:01.164Z,57.97
2023-02-12T21:59:31.595Z,60.80
2023-02-12T22:01:59.239Z,59.23
2023-02-12T22:04:26.796Z,60.37
2023-02-12T22:06:54.144Z,58.00
2023-02-12T22:09:22.833Z,58.20
2023-02-12T22:11:52.327Z,58.00
2023-02-12T22:14:20.794Z,57.73
2023-02-12T22:16:47.921Z,58.33
2023-02-12T22:19:15.111Z,60.50
2023-02-12T22:21:44.353Z,58.27
2023-02-12T22:24:15.632Z,57.43
2023-02-12T22:26:43.770Z,59.47
2023-02-12T22:29:14.629Z,57.13
2023-02-12T22:31:44.340Z,61.17
2023-02-12T22:34:16.955Z,58.40
2023-02-12T22:36:45.456Z,66.17
2023-02-12T22:39:13.697Z,59.20
2023-02-12T22:41:42.460Z,60.23
2023-02-12T22:44:12.394Z,63.80
2023-02-12T22:46:40.786Z,62.10
2023-02-12T22:49:08.159Z,68.53
2023-02-12T22:51:36.826Z,57.90
2023-02-12T22:54:06.148Z,65.17
2023-02-12T22:56:33.700Z,59.20
2023-02-12T22:59:02.427Z,63.37
2023-02-12T23:01:30.427Z,58.83
2023-02-12T23:03:57.997Z,60.93
2023-02-12T23:06:29.287Z,59.87
2023-02-12T23:09:00.721Z,58.83
2023-02-12T23:11:30.273Z,65.37
2023-02-12T23:13:57.861Z,66.17
2023-02-12T23:16:25.438Z,62.20
2023-02-12T23:19:00.471Z,62.17
2023-02-12T23:21:30.382Z,63.73
2023-02-12T23:24:01.996Z,64.47
2023-02-12T23:26:30.128Z,62.03
2023-02-12T23:28:58.463Z,61.20
2023-02-12T23:31:26.027Z,68.07
2023-02-12T23:33:53.087Z,58.77
2023-02-12T23:36:20.209Z,62.60
2023-02-12T23:38:47.200Z,65.70
2023-02-12T23:41:14.410Z,68.27
2023-02-12T23:43:41.427Z,66.97
2023-02-12T23:46:09.245Z,64.67
2023-02-12T23:48:36.555Z,64.77
2023-02-12T23:51:03.886Z,72.27
2023-02-12T23:53:31.017Z,68.13
2023-02-12T23:55:58.906Z,66.43
2023-02-12T23:58:25.910Z,64.00
